Time;durP1;ratioP1;P1;durP2;ratioP2;P2;SDS_P1;SDS_P2;PMS_P1;PMS_P2;Temp;Humidity;BMP_temperature;BMP_pressure;BME280_temperature;BME280_humidity;BME280_pressure;Samples;Min_cycle;Max_cycle;Signal;HPM_P1;HPM_P2
2021/06/03 00:02:09;;;;;;;2.47;1.73;;;;;;;7.49;100.00;93564.41;4992507;28;20093;-89
2021/06/03 00:04:37;;;;;;;4.07;2.58;;;;;;;7.92;100.00;93622.44;4992840;28;20065;-87
2021/06/03 00:07:04;;;;;;;3.50;2.38;;;;;;;7.67;100.00;93593.88;4992634;28;20056;-90
2021/06/03 00:09:31;;;;;;;4.60;3.20;;;;;;;7.66;100.00;93600.75;4992287;28;20850;-89
2021/06/03 00:11:58;;;;;;;4.20;2.35;;;;;;;7.77;100.00;93626.84;4992217;28;20129;-89
2021/06/03 00:14:24;;;;;;;3.25;1.92;;;;;;;7.64;100.00;93604.47;4991688;28;20050;-88
2021/06/03 00:16:51;;;;;;;3.42;2.47;;;;;;;7.44;100.00;93572.63;4992044;28;20486;-90
2021/06/03 00:19:18;;;;;;;3.25;2.58;;;;;;;7.33;100.00;93560.31;4991571;28;20078;-90
2021/06/03 00:21:46;;;;;;;7.95;2.03;;;;;;;7.30;100.00;93547.88;4990991;28;20046;-90
2021/06/03 00:24:13;;;;;;;2.30;1.45;;;;;;;7.73;100.00;93624.63;4991546;28;20046;-90
2021/06/03 00:26:40;;;;;;;3.63;2.03;;;;;;;7.73;100.00;93611.06;4990881;28;20405;-88
2021/06/03 00:29:06;;;;;;;4.32;2.00;;;;;;;7.62;100.00;93594.44;4991425;28;20046;-88
2021/06/03 00:31:33;;;;;;;2.05;1.73;;;;;;;7.65;100.00;93600.94;4991647;28;20494;-88
2021/06/03 00:33:59;;;;;;;3.97;2.05;;;;;;;7.69;100.00;93609.84;4992292;28;20049;-88
2021/06/03 00:36:26;;;;;;;3.22;2.17;;;;;;;7.53;100.00;93592.94;4992304;28;20133;-88
2021/06/03 00:38:54;;;;;;;3.55;2.15;;;;;;;7.37;100.00;93569.22;4992095;28;20043;-88
2021/06/03 00:41:20;;;;;;;3.90;2.92;;;;;;;7.72;100.00;93610.25;4991715;28;20062;-88
2021/06/03 00:43:47;;;;;;;2.75;1.77;;;;;;;7.47;100.00;93567.16;4991973;28;20042;-89
2021/06/03 00:46:14;;;;;;;2.78;1.85;;;;;;;7.87;100.00;93612.75;4991942;28;20394;-86
2021/06/03 00:48:40;;;;;;;3.60;2.25;;;;;;;7.64;100.00;93596.81;4991870;28;20042;-86
2021/06/03 00:51:09;;;;;;;2.42;1.50;;;;;;;7.86;100.00;93626.53;4991736;28;20055;-87
2021/06/03 00:53:37;;;;;;;2.65;1.83;;;;;;;7.31;100.00;93546.94;4991815;28;20042;-87
2021/06/03 00:56:06;;;;;;;3.45;1.95;;;;;;;7.51;100.00;93582.13;4991489;28;20053;-87
2021/06/03 00:58:34;;;;;;;2.80;1.80;;;;;;;7.72;100.00;93609.47;4991445;28;20129;-86
2021/06/03 01:01:00;;;;;;;5.43;2.20;;;;;;;7.77;100.00;93626.84;4991585;28;20046;-86
2021/06/03 01:03:27;;;;;;;;;;;;;;;7.76;100.00;93623.47;4991825;28;20856;-87
2021/06/03 01:05:58;;;;;;;3.50;2.10;;;;;;;7.56;100.00;93615.59;4991199;28;20354;-89
2021/06/03 01:08:26;;;;;;;4.10;2.15;;;;;;;7.51;100.00;93603.38;4991115;28;20167;-89
2021/06/03 01:10:58;;;;;;;2.63;1.60;;;;;;;7.69;100.00;93628.50;4991348;28;20050;-88
2021/06/03 01:13:34;;;;;;;3.72;1.92;;;;;;;7.64;100.00;93615.47;4991420;28;20042;-88
2021/06/03 01:16:03;;;;;;;3.10;1.80;;;;;;;7.21;100.00;93562.53;4991171;28;20494;-89
2021/06/03 01:18:32;;;;;;;2.30;1.70;;;;;;;7.56;100.00;93624.06;4991538;28;20046;-89
2021/06/03 01:20:59;;;;;;;4.93;2.33;;;;;;;7.25;100.00;93585.97;4991213;28;20113;-87
2021/06/03 01:23:29;;;;;;;3.47;2.50;;;;;;;7.12;100.00;93576.41;4990895;28;20046;-87
2021/06/03 01:25:57;;;;;;;2.75;1.98;;;;;;;7.06;100.00;93565.94;4991098;28;20046;-87
2021/06/03 01:28:25;;;;;;;3.40;2.10;;;;;;;7.42;100.00;93637.66;4990980;28;20046;-87
2021/06/03 01:30:54;;;;;;;2.83;1.65;;;;;;;7.38;100.00;93621.09;4990546;28;20046;-88
2021/06/03 01:33:25;;;;;;;2.95;1.83;;;;;;;7.12;100.00;93597.63;4991135;28;20059;-88
2021/06/03 01:35:54;;;;;;;1.92;1.38;;;;;;;6.93;100.00;93579.31;4990861;28;20057;-88
2021/06/03 01:38:26;;;;;;;3.50;2.17;;;;;;;7.14;100.00;93600.00;4991641;28;20073;-88
2021/06/03 01:40:54;;;;;;;3.40;2.25;;;;;;;6.89;100.00;93560.22;4993210;28;20109;-88
2021/06/03 01:43:24;;;;;;;3.13;1.63;;;;;;;6.73;100.00;93522.91;4992293;28;20109;-88
2021/06/03 01:45:51;;;;;;;3.88;1.60;;;;;;;6.89;100.00;93541.56;4991111;28;20072;-88
2021/06/03 01:48:20;;;;;;;4.97;2.15;;;;;;;7.33;100.00;93619.88;4990557;28;20050;-88
2021/06/03 01:50:49;;;;;;;2.63;1.67;;;;;;;7.29;100.00;93639.09;4990551;28;20486;-88
2021/06/03 01:53:17;;;;;;;3.55;1.90;;;;;;;7.17;100.00;93623.44;4990446;28;20614;-88
2021/06/03 01:55:44;;;;;;;2.65;1.38;;;;;;;7.11;100.00;93606.25;4990698;28;20449;-87
2021/06/03 01:58:11;;;;;;;3.20;1.92;;;;;;;7.24;100.00;93632.94;4990545;28;20938;-86
2021/06/03 02:00:39;;;;;;;3.67;1.85;;;;;;;7.25;100.00;93630.19;4990705;28;20053;-87
2021/06/03 02:03:06;;;;;;;4.05;2.08;;;;;;;7.07;100.00;93608.38;4990628;28;20061;-85
2021/06/03 02:05:32;;;;;;;5.97;1.50;;;;;;;7.18;100.00;93635.22;4990379;28;20064;-88
2021/06/03 02:07:59;;;;;;;3.90;1.92;;;;;;;7.10;100.00;93640.44;4990491;28;20465;-86
2021/06/03 02:10:26;;;;;;;2.65;2.20;;;;;;;6.91;100.00;93608.56;4990272;28;20050;-86
2021/06/03 02:12:59;;;;;;;4.25;1.77;;;;;;;6.67;100.00;93572.13;4990404;28;20050;-85
2021/06/03 02:15:28;;;;;;;3.38;1.63;;;;;;;7.04;100.00;93636.03;4990362;28;20034;-85
2021/06/03 02:17:59;;;;;;;2.08;1.52;;;;;;;6.93;100.00;93611.72;4990337;28;20054;-85
2021/06/03 02:20:30;;;;;;;3.35;2.25;;;;;;;6.90;100.00;93615.41;4990428;28;20047;-86
2021/06/03 02:22:58;;;;;;;2.67;1.55;;;;;;;7.11;100.00;93639.47;4990054;28;20497;-85
2021/06/03 02:25:26;;;;;;;3.35;2.35;;;;;;;7.06;100.00;93647.66;4990082;28;20054;-85
2021/06/03 02:27:53;;;;;;;2.85;1.85;;;;;;;7.07;100.00;93646.69;4990008;28;20046;-86
2021/06/03 02:30:21;;;;;;;3.97;1.98;;;;;;;6.88;100.00;93614.00;4990133;28;20054;-87
2021/06/03 02:32:49;;;;;;;2.58;1.58;;;;;;;6.97;100.00;93630.84;4989928;28;20081;-82
2021/06/03 02:35:17;;;;;;;3.30;1.50;;;;;;;6.98;100.00;93632.41;4990089;28;20047;-86
2021/06/03 02:37:45;;;;;;;2.60;2.33;;;;;;;7.04;100.00;93633.50;4989899;28;20485;-85
2021/06/03 02:40:15;;;;;;;4.40;2.28;;;;;;;7.12;100.00;93640.28;4989760;28;21208;-84
2021/06/03 02:42:44;;;;;;;3.20;1.70;;;;;;;7.03;100.00;93627.56;4989910;28;20054;-84
2021/06/03 02:45:13;;;;;;;2.33;1.75;;;;;;;7.15;100.00;93640.72;4989755;28;20046;-84
2021/06/03 02:47:39;;;;;;;5.40;3.10;;;;;;;6.94;100.00;93616.66;4989683;28;20042;-85
2021/06/03 02:50:08;;;;;;;3.83;2.35;;;;;;;6.90;100.00;93605.22;4989953;28;20074;-83
2021/06/03 02:52:36;;;;;;;3.38;2.25;;;;;;;7.16;100.00;93636.38;4989543;28;20062;-83
2021/06/03 02:55:03;;;;;;;5.05;1.95;;;;;;;7.12;100.00;93633.38;4990281;28;20069;-84
2021/06/03 02:57:30;;;;;;;3.15;2.05;;;;;;;7.09;100.00;93620.97;4989932;28;20069;-87
2021/06/03 02:59:56;;;;;;;2.42;1.92;;;;;;;7.30;100.00;93645.78;4989551;28;20050;-81
2021/06/03 03:02:22;;;;;;;;;;;;;;;7.33;100.00;93655.66;4990115;28;20058;-85
2021/06/03 03:04:49;;;;;;;5.40;1.70;;;;;;;7.07;100.00;93615.25;4989698;28;20440;-84
2021/06/03 03:07:15;;;;;;;4.00;2.55;;;;;;;7.39;100.00;93659.25;4989465;28;20043;-86
2021/06/03 03:09:43;;;;;;;;;;;;;;;7.43;100.00;93652.84;4991256;28;20055;-85
2021/06/03 03:12:10;;;;;;;4.53;3.30;;;;;;;7.48;100.00;93652.28;4989767;28;20254;-85
2021/06/03 03:14:38;;;;;;;4.30;2.40;;;;;;;7.40;100.00;93642.19;4989837;28;20054;-85
2021/06/03 03:17:05;;;;;;;3.03;1.80;;;;;;;7.64;100.00;93656.38;4989272;28;20042;-84
2021/06/03 03:19:32;;;;;;;2.97;2.25;;;;;;;7.71;100.00;93667.50;4989756;28;20439;-84
2021/06/03 03:21:59;;;;;;;4.13;2.17;;;;;;;7.72;100.00;93658.84;4989969;28;20046;-83
2021/06/03 03:24:25;;;;;;;3.88;3.10;;;;;;;7.78;100.00;93667.53;4989825;28;20070;-83
2021/06/03 03:26:53;;;;;;;2.53;1.58;;;;;;;7.78;100.00;93669.34;4989756;28;20057;-84
2021/06/03 03:29:19;;;;;;;3.92;2.22;;;;;;;7.80;100.00;93675.84;4989313;28;20549;-84
2021/06/03 03:31:45;;;;;;;;;;;;;;;7.89;100.00;93671.41;4990151;28;20046;-83
2021/06/03 03:34:12;;;;;;;3.08;1.85;;;;;;;7.91;100.00;93679.69;4989234;28;19917;-85
2021/06/03 03:36:38;;;;;;;3.17;2.45;;;;;;;7.88;100.00;93655.25;4989666;28;20050;-85
2021/06/03 03:39:05;;;;;;;4.47;3.10;;;;;;;7.93;100.00;93653.94;4989702;28;20050;-85
2021/06/03 03:41:32;;;;;;;3.80;1.80;;;;;;;8.03;100.00;93664.66;4989272;28;20375;-85
2021/06/03 03:44:00;;;;;;;3.70;2.45;;;;;;;8.21;100.00;93684.72;4989582;28;20046;-85
2021/06/03 03:46:26;;;;;;;2.97;2.22;;;;;;;8.21;100.00;93677.03;4985334;28;20125;-84
2021/06/03 03:48:52;;;;;;;;;;;;;;;8.26;100.00;93690.09;4988857;28;20057;-84
2021/06/03 03:51:19;;;;;;;4.15;1.92;;;;;;;8.11;100.00;93666.31;4992645;28;19917;-84
2021/06/03 03:53:45;;;;;;;3.47;2.17;;;;;;;8.35;100.00;93688.19;4992534;28;20042;-85
2021/06/03 03:56:12;;;;;;;3.80;2.53;;;;;;;8.45;100.00;93689.63;4992757;28;20054;-84
2021/06/03 03:58:41;;;;;;;5.10;2.35;;;;;;;8.49;100.00;93686.53;4992673;28;20069;-84
2021/06/03 04:01:09;;;;;;;5.47;2.22;;;;;;;8.53;100.00;93689.53;4992614;28;20158;-84
2021/06/03 04:03:35;;;;;;;3.45;2.40;;;;;;;8.63;100.00;93684.09;4992321;28;20050;-86
2021/06/03 04:06:01;;;;;;;8.35;3.15;;;;;;;8.68;100.00;93686.91;4992424;28;20073;-85
2021/06/03 04:08:28;;;;;;;2.92;2.50;;;;;;;8.67;100.00;93683.53;4992536;28;20084;-85
2021/06/03 04:10:57;;;;;;;6.55;2.75;;;;;;;8.71;100.00;93680.63;4992054;28;20050;-86
2021/06/03 04:13:23;;;;;;;2.70;2.05;;;;;;;8.90;100.00;93699.66;4992336;28;20050;-86
2021/06/03 04:15:50;;;;;;;4.13;2.38;;;;;;;8.84;100.00;93679.91;4992418;28;20046;-85
2021/06/03 04:18:18;;;;;;;3.88;2.58;;;;;;;8.93;100.00;93682.16;4992332;28;20446;-85
2021/06/03 04:20:44;;;;;;;7.60;2.80;;;;;;;9.05;100.00;93695.22;4992130;28;20093;-85
2021/06/03 04:23:13;;;;;;;5.15;2.97;;;;;;;8.40;100.00;93575.78;4992406;28;20046;-85
2021/06/03 04:25:40;;;;;;;8.85;3.00;;;;;;;9.36;100.00;93700.94;4992320;28;20042;-86
2021/06/03 04:28:06;;;;;;;;;;;;;;;9.47;100.00;93705.53;4993216;28;20051;-85
2021/06/03 04:30:33;;;;;;;4.65;3.15;;;;;;;9.52;100.00;93704.94;4991973;28;19945;-85
2021/06/03 04:32:59;;;;;;;8.07;2.65;;;;;;;9.03;100.00;93640.03;4991863;28;20581;-86
2021/06/03 04:35:27;;;;;;;5.63;2.28;;;;;;;9.43;100.00;93698.38;4992275;28;20057;-86
2021/06/03 04:37:57;;;;;;;3.40;2.38;;;;;;;9.60;98.17;93714.25;4992107;28;20042;-86
2021/06/03 04:40:24;;;;;;;4.30;2.72;;;;;;;9.30;98.11;93653.75;4992154;28;20050;-86
2021/06/03 04:42:52;;;;;;;5.32;2.53;;;;;;;9.75;98.78;93696.16;4991548;28;20058;-86
2021/06/03 04:45:19;;;;;;;8.63;3.35;;;;;;;9.63;97.09;93681.31;4992050;28;20042;-86
2021/06/03 04:47:46;;;;;;;9.80;2.90;;;;;;;9.64;97.05;93669.28;4992074;28;20046;-86
2021/06/03 04:50:14;;;;;;;5.70;2.78;;;;;;;9.73;95.90;93678.38;4991506;28;20046;-86
2021/06/03 04:52:42;;;;;;;9.25;3.80;;;;;;;10.06;95.91;93709.47;4991893;28;20050;-86
2021/06/03 04:55:12;;;;;;;7.60;3.15;;;;;;;10.09;94.85;93701.38;4991516;28;20053;-87
2021/06/03 04:57:39;;;;;;;5.88;2.30;;;;;;;10.15;93.50;93703.94;4991565;28;20046;-86
2021/06/03 05:00:09;;;;;;;4.15;2.58;;;;;;;10.53;95.02;93733.50;4991122;28;20085;-86
2021/06/03 05:02:36;;;;;;;11.05;2.63;;;;;;;10.65;94.07;93720.06;4991643;28;20049;-87
2021/06/03 05:05:03;;;;;;;3.88;2.60;;;;;;;10.31;93.61;93683.25;4991637;28;20057;-86
2021/06/03 05:07:30;;;;;;;12.23;3.15;;;;;;;10.76;92.88;93727.19;4991811;28;20117;-85
2021/06/03 05:09:57;;;;;;;;;;;;;;;10.90;91.80;93727.97;4991962;28;20046;-86
2021/06/03 05:12:24;;;;;;;4.78;2.35;;;;;;;10.16;91.75;93625.19;4979922;28;20317;-87
2021/06/03 05:14:50;;;;;;;4.90;2.78;;;;;;;11.02;92.21;93725.56;4972022;28;20177;-86
2021/06/03 05:17:16;;;;;;;6.28;2.60;;;;;;;11.11;90.34;93726.16;4972117;28;20062;-84
2021/06/03 05:19:42;;;;;;;;;;;;;;;11.28;89.93;93725.72;4972591;28;20047;-84
2021/06/03 05:22:09;;;;;;;6.72;2.78;;;;;;;11.31;90.90;93717.63;4971978;28;19918;-84
2021/06/03 05:24:36;;;;;;;4.95;3.00;;;;;;;11.41;89.16;93709.50;4971718;28;20062;-84
2021/06/03 05:27:05;;;;;;;4.47;2.75;;;;;;;11.70;89.79;93721.09;4971579;28;20043;-84
2021/06/03 05:29:32;;;;;;;5.18;2.50;;;;;;;11.75;88.03;93710.16;4971631;28;20051;-84
2021/06/03 05:31:58;;;;;;;3.33;1.83;;;;;;;12.06;86.33;93728.47;4971475;28;20047;-84
2021/06/03 05:34:24;;;;;;;3.88;2.65;;;;;;;12.10;85.31;93729.66;4971723;28;20046;-84
2021/06/03 05:36:51;;;;;;;6.28;3.15;;;;;;;12.24;85.36;93728.59;4971340;28;20101;-84
2021/06/03 05:39:17;;;;;;;4.45;2.30;;;;;;;12.29;84.37;93746.81;4971613;28;20099;-84
2021/06/03 05:41:44;;;;;;;3.30;2.10;;;;;;;12.35;85.52;93724.56;4971334;28;20039;-84
2021/06/03 05:44:14;;;;;;;5.13;2.63;;;;;;;12.50;84.23;93726.06;4971567;28;20373;-85
2021/06/03 05:46:42;;;;;;;7.20;2.63;;;;;;;12.67;82.57;93737.44;4971508;28;20050;-85
2021/06/03 05:49:10;;;;;;;4.95;3.65;;;;;;;12.63;82.87;93738.84;4971405;28;20062;-85
2021/06/03 05:51:37;;;;;;;7.78;3.90;;;;;;;12.73;82.00;93727.31;4971172;28;20142;-85
2021/06/03 05:54:03;;;;;;;10.40;4.25;;;;;;;12.98;81.19;93741.97;4971077;28;20043;-84
2021/06/03 05:56:30;;;;;;;6.43;4.03;;;;;;;13.14;80.75;93744.00;4971392;28;20383;-85
2021/06/03 05:58:56;;;;;;;;;;;;;;;13.34;81.11;93741.25;4971312;28;20047;-85
2021/06/03 06:01:25;;;;;;;10.48;3.88;;;;;;;13.52;81.27;93738.94;4970882;28;20370;-84
2021/06/03 06:03:57;;;;;;;8.45;3.80;;;;;;;13.65;79.37;93733.63;4971307;28;20054;-85
2021/06/03 06:06:24;;;;;;;6.07;3.75;;;;;;;13.78;79.85;93717.19;4970927;28;20490;-85
2021/06/03 06:08:52;;;;;;;6.78;3.65;;;;;;;14.00;78.90;93734.84;4970750;28;20065;-85
2021/06/03 06:11:19;;;;;;;7.82;4.75;;;;;;;14.08;79.18;93731.16;4972311;28;20058;-85
2021/06/03 06:13:45;;;;;;;6.90;3.42;;;;;;;13.99;77.51;93726.28;4990595;28;20054;-84
2021/06/03 06:16:12;;;;;;;5.68;3.42;;;;;;;14.09;77.27;93722.41;4989970;28;20186;-85
2021/06/03 06:18:41;;;;;;;5.43;2.78;;;;;;;14.08;77.77;93726.78;4989510;28;20050;-85
2021/06/03 06:21:08;;;;;;;7.18;3.83;;;;;;;14.08;78.46;93731.16;4989352;28;20126;-86
2021/06/03 06:23:36;;;;;;;4.88;2.45;;;;;;;14.10;78.56;93717.03;4990291;28;20065;-85
2021/06/03 06:26:03;;;;;;;4.45;2.88;;;;;;;14.48;80.57;93725.44;4990458;28;20053;-84
2021/06/03 06:28:30;;;;;;;5.20;2.13;;;;;;;14.80;81.53;93730.38;4989812;28;20077;-84
2021/06/03 06:30:57;;;;;;;3.75;2.38;;;;;;;15.35;79.33;93712.97;4990064;28;20395;-85
2021/06/03 06:33:24;;;;;;;4.93;2.72;;;;;;;15.93;74.52;93721.91;4990307;28;20050;-86
2021/06/03 06:35:52;;;;;;;3.65;1.58;;;;;;;16.47;63.71;93718.97;4990231;28;20050;-85
2021/06/03 06:38:20;;;;;;;2.55;1.48;;;;;;;16.96;63.76;93709.88;4989950;28;20042;-85
2021/06/03 06:40:47;;;;;;;2.38;1.48;;;;;;;17.28;56.37;93724.13;4989926;28;20127;-85
2021/06/03 06:43:14;;;;;;;4.32;2.25;;;;;;;17.68;55.15;93722.31;4990082;28;20042;-84
2021/06/03 06:45:40;;;;;;;2.55;1.40;;;;;;;17.41;54.95;93676.25;4989964;28;20042;-85
2021/06/03 06:48:09;;;;;;;3.30;1.65;;;;;;;17.37;55.11;93714.91;4989893;28;20042;-85
2021/06/03 06:50:36;;;;;;;4.32;2.00;;;;;;;17.57;57.29;93703.19;4989900;28;20392;-83
2021/06/03 06:53:05;;;;;;;2.65;1.80;;;;;;;18.11;55.67;93720.75;4990089;28;20137;-85
2021/06/03 06:55:32;;;;;;;5.55;1.98;;;;;;;18.40;54.43;93723.13;4989989;28;20138;-84
2021/06/03 06:58:00;;;;;;;4.20;2.00;;;;;;;18.55;53.49;93721.66;4990047;28;20046;-81
2021/06/03 07:00:29;;;;;;;2.17;1.13;;;;;;;18.64;52.17;93704.59;4989516;28;20129;-84
2021/06/03 07:02:56;;;;;;;2.30;1.20;;;;;;;18.57;51.10;93714.41;4989653;28;20053;-83
2021/06/03 07:05:24;;;;;;;3.60;1.67;;;;;;;18.55;51.58;93722.47;4989782;28;20047;-84
2021/06/03 07:07:50;;;;;;;2.33;1.58;;;;;;;18.33;49.86;93706.91;4989954;28;20039;-84
2021/06/03 07:10:19;;;;;;;5.85;2.00;;;;;;;18.26;51.08;93703.72;4989633;28;20054;-84
2021/06/03 07:12:45;;;;;;;4.93;2.35;;;;;;;18.29;52.09;93726.66;4989733;28;20097;-84
2021/06/03 07:15:14;;;;;;;3.40;1.70;;;;;;;17.40;53.57;93716.22;4989341;28;20050;-84
2021/06/03 07:17:40;;;;;;;2.25;1.42;;;;;;;16.96;51.85;93718.44;4989636;28;20486;-84
2021/06/03 07:20:10;;;;;;;4.82;1.60;;;;;;;17.30;55.56;93717.66;4989795;28;20048;-84
2021/06/03 07:22:36;;;;;;;3.67;2.28;;;;;;;17.46;54.57;93723.84;4990524;28;20050;-83
2021/06/03 07:25:07;;;;;;;1.88;1.25;;;;;;;17.65;55.16;93726.16;4993330;28;20049;-83
2021/06/03 07:27:35;;;;;;;4.20;1.83;;;;;;;17.44;54.89;93665.38;4993264;28;20053;-83
2021/06/03 07:30:02;;;;;;;2.72;1.25;;;;;;;17.84;53.82;93694.69;4993296;28;20050;-84
2021/06/03 07:32:29;;;;;;;2.58;1.30;;;;;;;18.26;52.19;93720.13;4993177;28;20121;-84
2021/06/03 07:34:56;;;;;;;2.33;1.40;;;;;;;17.76;54.27;93695.88;4992990;28;20498;-84
2021/06/03 07:37:23;;;;;;;3.35;1.70;;;;;;;18.34;55.40;93726.69;4993396;28;20061;-84
2021/06/03 07:39:49;;;;;;;2.08;1.20;;;;;;;18.64;52.33;93732.41;4993049;28;20093;-82
2021/06/03 07:42:16;;;;;;;2.53;1.17;;;;;;;18.73;49.92;93725.72;4993252;28;20046;-82
2021/06/03 07:44:46;;;;;;;2.80;1.17;;;;;;;17.59;51.67;93722.69;4993163;28;20057;-82
2021/06/03 07:47:12;;;;;;;2.17;1.23;;;;;;;17.40;52.34;93719.59;4993040;28;20054;-81
2021/06/03 07:49:38;;;;;;;2.00;1.20;;;;;;;17.25;55.24;93714.22;4993349;28;20050;-82
2021/06/03 07:52:05;;;;;;;;;;;;;;;17.49;53.25;93725.16;4993624;28;20050;-82
2021/06/03 07:54:31;;;;;;;3.88;1.50;;;;;;;17.68;52.59;93719.69;4992634;28;20377;-82
2021/06/03 07:56:57;;;;;;;;;;;;;;;17.02;51.97;93721.09;4993439;28;20046;-82
2021/06/03 07:59:24;;;;;;;2.03;1.25;;;;;;;16.75;53.51;93714.75;4992977;28;20309;-82
2021/06/03 08:01:52;;;;;;;1.85;1.13;;;;;;;16.78;53.53;93703.91;4992944;28;20102;-83
2021/06/03 08:04:20;;;;;;;1.80;1.00;;;;;;;17.33;51.30;93701.63;4992872;28;20113;-84
2021/06/03 08:06:47;;;;;;;1.90;1.02;;;;;;;16.75;51.67;93698.41;4988824;28;20405;-83
2021/06/03 08:09:13;;;;;;;1.50;1.20;;;;;;;16.90;53.37;93709.00;4990798;28;20054;-81
2021/06/03 08:11:42;;;;;;;1.60;1.23;;;;;;;17.74;54.16;93706.50;4992298;28;20702;-82
2021/06/03 08:14:08;;;;;;;1.58;0.90;;;;;;;17.22;50.88;93697.31;4992324;28;20045;-81
2021/06/03 08:16:34;;;;;;;1.50;1.05;;;;;;;16.95;52.30;93688.31;4992516;28;20053;-81
2021/06/03 08:19:02;;;;;;;2.08;0.95;;;;;;;17.22;52.96;93705.09;4992412;28;20093;-82
2021/06/03 08:21:28;;;;;;;2.70;1.45;;;;;;;17.83;51.06;93699.06;4992265;28;20106;-81
2021/06/03 08:23:55;;;;;;;4.40;0.90;;;;;;;17.85;50.93;93710.03;4992311;28;20391;-81
2021/06/03 08:26:23;;;;;;;2.20;1.13;;;;;;;17.57;48.14;93696.19;4992428;28;20046;-81
2021/06/03 08:28:50;;;;;;;2.38;0.82;;;;;;;17.58;49.88;93682.19;4991985;28;20141;-82
2021/06/03 08:31:16;;;;;;;1.38;0.73;;;;;;;18.23;50.26;93709.44;4991923;28;20042;-82
2021/06/03 08:33:42;;;;;;;3.17;1.23;;;;;;;18.10;51.04;93705.38;4991871;28;20042;-81
2021/06/03 08:36:11;;;;;;;3.83;1.23;;;;;;;18.58;47.91;93702.97;4991599;28;20046;-82
2021/06/03 08:38:37;;;;;;;1.60;0.90;;;;;;;18.38;46.60;93722.56;4992267;28;20077;-82
2021/06/03 08:41:03;;;;;;;1.58;0.88;;;;;;;17.82;46.46;93713.09;4991992;28;20397;-82
2021/06/03 08:43:32;;;;;;;1.33;0.80;;;;;;;17.58;47.34;93697.75;4991758;28;20051;-82
2021/06/03 08:46:01;;;;;;;1.88;1.10;;;;;;;17.70;48.32;93702.84;4992128;28;20050;-82
2021/06/03 08:48:27;;;;;;;2.10;1.08;;;;;;;18.15;48.48;93708.81;4992179;28;20050;-83
2021/06/03 08:50:57;;;;;;;2.58;0.95;;;;;;;18.61;46.59;93720.69;4991433;28;20815;-82
2021/06/03 08:53:25;;;;;;;2.03;1.10;;;;;;;18.35;43.85;93714.47;4991593;28;20053;-81
2021/06/03 08:58:37;;;;;;;1.97;1.10;;;;;;;18.56;48.13;93707.63;4991940;28;20488;-82
2021/06/03 09:01:05;;;;;;;2.22;1.27;;;;;;;17.68;47.79;93699.69;4991627;28;20053;-82
2021/06/03 09:03:33;;;;;;;1.88;1.27;;;;;;;18.59;46.87;93706.34;4991405;28;20049;-80
2021/06/03 09:06:00;;;;;;;1.80;0.90;;;;;;;18.58;45.59;93718.59;4991334;28;20046;-82
2021/06/03 09:08:30;;;;;;;4.47;1.63;;;;;;;18.45;45.90;93716.38;4991388;28;20049;-82
2021/06/03 09:10:58;;;;;;;2.13;0.85;;;;;;;19.29;44.22;93711.56;4991533;28;20046;-82
2021/06/03 09:13:26;;;;;;;2.97;0.95;;;;;;;19.50;45.17;93709.09;4991507;28;20057;-82
2021/06/03 09:15:55;;;;;;;1.70;0.75;;;;;;;19.93;44.73;93716.81;4991669;28;20121;-81
2021/06/03 09:18:30;;;;;;;2.42;1.00;;;;;;;20.40;43.56;93712.53;4991153;28;20501;-81
2021/06/03 09:21:06;;;;;;;1.38;0.77;;;;;;;19.81;43.55;93713.66;4991092;28;20585;-82
2021/06/03 09:23:36;;;;;;;1.85;0.90;;;;;;;19.82;43.81;93707.41;4991217;28;20129;-82
2021/06/03 09:26:07;;;;;;;2.47;1.58;;;;;;;19.39;42.65;93702.25;4991243;28;20073;-81
2021/06/03 09:28:35;;;;;;;3.30;1.00;;;;;;;19.68;44.69;93700.06;4990725;28;20053;-81
2021/06/03 09:31:09;;;;;;;1.88;1.00;;;;;;;19.08;43.49;93698.41;4991016;28;20046;-82
2021/06/03 09:33:42;;;;;;;3.10;1.02;;;;;;;19.63;45.12;93690.38;4990709;28;20042;-82
2021/06/03 09:36:10;;;;;;;2.67;1.20;;;;;;;19.52;43.36;93696.59;4990714;28;20049;-81
2021/06/03 09:38:51;;;;;;;1.88;1.08;;;;;;;19.95;44.39;93693.09;4990852;28;20043;-82
2021/06/03 09:41:18;;;;;;;1.52;0.98;;;;;;;19.88;43.66;93688.91;4990756;28;20398;-80
2021/06/03 09:43:44;;;;;;;1.80;0.75;;;;;;;19.21;42.22;93693.84;4990718;28;20097;-82
2021/06/03 09:46:14;;;;;;;2.15;1.10;;;;;;;19.06;41.43;93699.69;4990908;28;20330;-84
2021/06/03 09:48:42;;;;;;;1.63;0.90;;;;;;;18.88;43.87;93693.84;4990704;28;20049;-82
2021/06/03 09:51:24;;;;;;;1.70;1.00;;;;;;;19.58;43.94;93695.56;4990375;28;20054;-82
2021/06/03 09:54:00;;;;;;;1.65;0.95;;;;;;;18.86;44.66;93693.31;4989898;28;20384;-82
2021/06/03 09:56:27;;;;;;;;;;;;;;;19.17;45.75;93701.34;4991035;28;20537;-82
2021/06/03 09:58:53;;;;;;;1.48;1.00;;;;;;;19.38;43.90;93700.69;4990290;28;19918;-82
2021/06/03 10:01:43;;;;;;;1.65;0.90;;;;;;;20.15;43.02;93687.19;4990698;28;20069;-82
2021/06/03 10:04:11;;;;;;;1.85;1.05;;;;;;;20.70;42.38;93690.09;4990682;28;20039;-82
2021/06/03 10:06:57;;;;;;;1.67;1.10;;;;;;;20.43;41.40;93685.16;4990062;28;20034;-81
2021/06/03 10:09:42;;;;;;;1.77;0.95;;;;;;;20.99;43.68;93694.06;4989033;28;20406;-81
2021/06/03 10:12:10;;;;;;;2.80;0.88;;;;;;;20.60;41.87;93692.72;4299155;28;20002241;-83
2021/06/03 10:14:37;;;;;;;2.38;1.10;;;;;;;20.24;40.80;93680.44;4989878;28;20525;-83
2021/06/03 10:17:16;;;;;;;1.23;0.80;;;;;;;20.14;43.90;93696.06;4987455;28;20069;-82
2021/06/03 10:19:43;;;;;;;3.47;1.02;;;;;;;20.56;45.05;93686.47;4972505;28;20093;-84
2021/06/03 10:22:15;;;;;;;1.73;1.00;;;;;;;21.09;41.74;93688.81;4989845;28;20038;-82
2021/06/03 10:25:04;;;;;;;1.88;1.27;;;;;;;21.63;40.22;93691.81;4989899;28;20401;-82
2021/06/03 10:27:33;;;;;;;2.60;1.10;;;;;;;21.43;41.18;93690.03;4984586;28;20046;-83
2021/06/03 10:30:01;;;;;;;1.80;0.98;;;;;;;21.23;39.54;93699.50;4989814;28;20038;-83
2021/06/03 10:32:29;;;;;;;2.67;1.00;;;;;;;20.19;42.78;93687.44;4987118;28;20068;-84
2021/06/03 10:34:56;;;;;;;2.10;1.40;;;;;;;19.16;42.58;93689.34;4989114;28;20050;-84
2021/06/03 10:37:25;;;;;;;1.83;0.93;;;;;;;19.03;45.25;93669.75;4986033;28;20049;-83
2021/06/03 10:39:55;;;;;;;1.40;0.85;;;;;;;18.60;44.18;93674.88;4989730;28;20098;-84
2021/06/03 10:42:24;;;;;;;1.98;1.00;;;;;;;19.38;45.09;93685.84;4993458;28;20038;-83
2021/06/03 10:44:52;;;;;;;1.65;0.93;;;;;;;19.21;44.08;93692.00;4993078;28;20084;-81
2021/06/03 10:47:18;;;;;;;2.88;1.23;;;;;;;18.95;43.69;93673.59;4989644;28;20042;-83
2021/06/03 10:49:46;;;;;;;2.97;1.55;;;;;;;19.69;43.94;93690.41;4989812;28;20486;-82
2021/06/03 10:52:14;;;;;;;1.73;1.08;;;;;;;20.36;43.43;93688.00;4990046;28;20050;-83
2021/06/03 10:54:51;;;;;;;3.28;1.85;;;;;;;19.86;40.94;93687.59;4990111;28;20034;-83
2021/06/03 10:57:20;;;;;;;1.45;0.80;;;;;;;19.59;42.14;93698.97;4990292;28;20046;-84
2021/06/03 10:59:49;;;;;;;1.95;0.90;;;;;;;19.65;41.58;93660.66;4993649;28;20042;-82
2021/06/03 11:02:16;;;;;;;2.30;0.80;;;;;;;19.26;42.82;93691.25;4993931;28;20057;-82
2021/06/03 11:04:44;;;;;;;3.42;0.90;;;;;;;19.41;42.83;93685.34;4993683;28;20505;-84
2021/06/03 11:07:11;;;;;;;1.38;0.80;;;;;;;19.65;43.44;93639.81;4993635;28;20046;-81
2021/06/03 11:09:40;;;;;;;2.45;1.45;;;;;;;19.99;42.25;93681.13;4993476;28;20054;-82
2021/06/03 11:12:27;;;;;;;1.50;0.90;;;;;;;19.40;42.43;93675.16;4993603;28;20450;-82
2021/06/03 11:15:09;;;;;;;1.52;0.82;;;;;;;18.50;43.38;93698.22;4985899;28;20038;-83
2021/06/03 11:18:01;;;;;;;4.57;1.17;;;;;;;19.23;44.25;93694.34;4993596;28;20058;-83
2021/06/03 11:20:36;;;;;;;1.38;0.80;;;;;;;20.10;44.20;93685.38;4993433;28;20077;-83
2021/06/03 11:23:41;;;;;;;1.60;1.05;;;;;;;20.77;42.37;93692.47;4993609;28;20513;-82
2021/06/03 11:26:08;;;;;;;2.10;1.23;;;;;;;21.55;41.60;93673.28;4993681;28;20070;-83
2021/06/03 11:28:34;;;;;;;1.10;0.80;;;;;;;22.30;40.09;93684.72;4993270;28;20050;-82
2021/06/03 11:31:23;;;;;;;3.03;1.15;;;;;;;22.76;38.81;93675.78;4993477;28;20042;-84
2021/06/03 11:34:07;;;;;;;2.33;0.90;;;;;;;22.59;40.05;93657.84;4993125;28;20102;-82
2021/06/03 11:36:34;;;;;;;3.42;1.45;;;;;;;22.48;39.88;93678.06;4993290;28;20098;-83
2021/06/03 11:39:01;;;;;;;1.90;1.13;;;;;;;;;;4992691;28;20042;-84
2021/06/03 11:41:38;;;;;;;1.88;1.20;;;;;;;21.56;40.31;93672.25;4993252;28;20049;-83
2021/06/03 11:44:10;;;;;;;1.73;1.08;;;;;;;21.23;42.29;93662.94;4992928;28;20053;-82
2021/06/03 11:47:02;;;;;;;1.48;1.02;;;;;;;21.88;42.55;93669.25;4992996;28;20054;-82